sensor_id;sensor_type;location;lat;lon;timestamp;temperature;humidity
69382;DHT22;56560;50.692;12.844;2023-07-30T00:01:54;15.70;87.50
69382;DHT22;56560;50.692;12.844;2023-07-30T00:04:19;15.70;87.20
69382;DHT22;56560;50.692;12.844;2023-07-30T00:06:45;15.70;87.50
69382;DHT22;56560;50.692;12.844;2023-07-30T00:09:10;15.60;87.60
69382;DHT22;56560;50.692;12.844;2023-07-30T00:11:36;15.60;87.80
69382;DHT22;56560;50.692;12.844;2023-07-30T00:14:02;15.50;87.80
69382;DHT22;56560;50.692;12.844;2023-07-30T00:16:27;15.40;88.20
69382;DHT22;56560;50.692;12.844;2023-07-30T00:18:53;15.40;88.30
69382;DHT22;56560;50.692;12.844;2023-07-30T00:21:18;15.30;88.60
69382;DHT22;56560;50.692;12.844;2023-07-30T00:23:47;15.30;88.50
69382;DHT22;56560;50.692;12.844;2023-07-30T00:26:12;15.30;88.70
69382;DHT22;56560;50.692;12.844;2023-07-30T00:28:38;15.30;88.90
69382;DHT22;56560;50.692;12.844;2023-07-30T00:31:04;15.30;89.00
69382;DHT22;56560;50.692;12.844;2023-07-30T00:33:29;15.30;88.70
69382;DHT22;56560;50.692;12.844;2023-07-30T00:35:55;15.30;88.80
69382;DHT22;56560;50.692;12.844;2023-07-30T00:38:21;15.40;88.70
69382;DHT22;56560;50.692;12.844;2023-07-30T00:40:47;15.40;88.40
69382;DHT22;56560;50.692;12.844;2023-07-30T00:43:12;15.30;88.40
69382;DHT22;56560;50.692;12.844;2023-07-30T00:45:40;15.30;88.20
69382;DHT22;56560;50.692;12.844;2023-07-30T00:48:06;15.20;88.70
69382;DHT22;56560;50.692;12.844;2023-07-30T00:50:33;15.20;88.80
69382;DHT22;56560;50.692;12.844;2023-07-30T00:52:59;15.20;88.70
69382;DHT22;56560;50.692;12.844;2023-07-30T00:55:24;15.20;88.60
69382;DHT22;56560;50.692;12.844;2023-07-30T00:57:51;15.20;88.70
69382;DHT22;56560;50.692;12.844;2023-07-30T01:00:17;15.20;88.80
69382;DHT22;56560;50.692;12.844;2023-07-30T01:02:43;15.30;88.10
69382;DHT22;56560;50.692;12.844;2023-07-30T01:05:09;15.30;88.40
69382;DHT22;56560;50.692;12.844;2023-07-30T01:07:35;15.30;88.40
69382;DHT22;56560;50.692;12.844;2023-07-30T01:10:01;15.30;88.40
69382;DHT22;56560;50.692;12.844;2023-07-30T01:12:29;15.30;88.20
69382;DHT22;56560;50.692;12.844;2023-07-30T01:14:56;15.40;88.30
69382;DHT22;56560;50.692;12.844;2023-07-30T01:17:22;15.40;88.10
69382;DHT22;56560;50.692;12.844;2023-07-30T01:19:48;15.40;87.90
69382;DHT22;56560;50.692;12.844;2023-07-30T01:22:20;15.30;88.20
69382;DHT22;56560;50.692;12.844;2023-07-30T01:24:46;15.20;88.20
69382;DHT22;56560;50.692;12.844;2023-07-30T01:27:16;15.10;88.90
69382;DHT22;56560;50.692;12.844;2023-07-30T01:29:57;15.00;89.40
69382;DHT22;56560;50.692;12.844;2023-07-30T01:32:27;14.90;89.80
69382;DHT22;56560;50.692;12.844;2023-07-30T01:34:55;14.90;90.60
69382;DHT22;56560;50.692;12.844;2023-07-30T01:37:22;14.90;90.40
69382;DHT22;56560;50.692;12.844;2023-07-30T01:39:49;15.00;89.80
69382;DHT22;56560;50.692;12.844;2023-07-30T01:42:15;15.00;89.90
69382;DHT22;56560;50.692;12.844;2023-07-30T01:44:41;15.10;89.40
69382;DHT22;56560;50.692;12.844;2023-07-30T01:47:07;15.10;89.30
69382;DHT22;56560;50.692;12.844;2023-07-30T01:49:33;15.10;88.90
69382;DHT22;56560;50.692;12.844;2023-07-30T01:51:59;15.20;89.00
69382;DHT22;56560;50.692;12.844;2023-07-30T01:54:24;15.20;88.40
69382;DHT22;56560;50.692;12.844;2023-07-30T01:56:50;15.20;88.40
69382;DHT22;56560;50.692;12.844;2023-07-30T01:59:16;15.10;88.60
69382;DHT22;56560;50.692;12.844;2023-07-30T02:01:42;15.10;88.80
69382;DHT22;56560;50.692;12.844;2023-07-30T02:04:08;15.10;89.10
69382;DHT22;56560;50.692;12.844;2023-07-30T02:06:34;15.10;88.70
69382;DHT22;56560;50.692;12.844;2023-07-30T02:08:59;15.10;88.70
69382;DHT22;56560;50.692;12.844;2023-07-30T02:11:25;15.10;88.90
69382;DHT22;56560;50.692;12.844;2023-07-30T02:13:50;15.00;88.60
69382;DHT22;56560;50.692;12.844;2023-07-30T02:16:16;15.00;88.80
69382;DHT22;56560;50.692;12.844;2023-07-30T02:18:42;15.00;89.00
69382;DHT22;56560;50.692;12.844;2023-07-30T02:21:07;14.90;89.10
69382;DHT22;56560;50.692;12.844;2023-07-30T02:23:33;14.90;89.50
69382;DHT22;56560;50.692;12.844;2023-07-30T02:25:59;14.90;88.80
69382;DHT22;56560;50.692;12.844;2023-07-30T02:28:24;14.90;88.70
69382;DHT22;56560;50.692;12.844;2023-07-30T02:30:50;14.90;88.70
69382;DHT22;56560;50.692;12.844;2023-07-30T02:33:15;14.80;88.90
69382;DHT22;56560;50.692;12.844;2023-07-30T02:35:43;14.80;89.30
69382;DHT22;56560;50.692;12.844;2023-07-30T02:38:09;14.80;89.40
69382;DHT22;56560;50.692;12.844;2023-07-30T02:40:34;14.70;89.40
69382;DHT22;56560;50.692;12.844;2023-07-30T02:43:00;14.70;89.60
69382;DHT22;56560;50.692;12.844;2023-07-30T02:45:25;14.70;89.70
69382;DHT22;56560;50.692;12.844;2023-07-30T02:47:51;14.60;90.30
69382;DHT22;56560;50.692;12.844;2023-07-30T02:50:17;14.60;90.30
69382;DHT22;56560;50.692;12.844;2023-07-30T02:52:42;14.50;90.70
69382;DHT22;56560;50.692;12.844;2023-07-30T02:55:08;14.60;90.70
69382;DHT22;56560;50.692;12.844;2023-07-30T02:57:34;14.60;90.80
69382;DHT22;56560;50.692;12.844;2023-07-30T02:59:59;14.60;90.40
69382;DHT22;56560;50.692;12.844;2023-07-30T03:02:25;14.60;90.30
69382;DHT22;56560;50.692;12.844;2023-07-30T03:04:50;14.70;90.30
69382;DHT22;56560;50.692;12.844;2023-07-30T03:07:16;14.60;89.80
69382;DHT22;56560;50.692;12.844;2023-07-30T03:09:43;14.70;89.90
69382;DHT22;56560;50.692;12.844;2023-07-30T03:12:09;14.60;90.40
69382;DHT22;56560;50.692;12.844;2023-07-30T03:14:34;14.60;90.40
69382;DHT22;56560;50.692;12.844;2023-07-30T03:17:00;14.70;90.00
69382;DHT22;56560;50.692;12.844;2023-07-30T03:19:26;14.60;90.10
69382;DHT22;56560;50.692;12.844;2023-07-30T03:21:51;14.60;90.50
69382;DHT22;56560;50.692;12.844;2023-07-30T03:24:17;14.60;90.20
69382;DHT22;56560;50.692;12.844;2023-07-30T03:26:42;14.50;90.30
69382;DHT22;56560;50.692;12.844;2023-07-30T03:29:08;14.50;90.50
69382;DHT22;56560;50.692;12.844;2023-07-30T03:31:34;14.50;90.60
69382;DHT22;56560;50.692;12.844;2023-07-30T03:33:59;14.50;90.70
69382;DHT22;56560;50.692;12.844;2023-07-30T03:36:25;14.60;90.70
69382;DHT22;56560;50.692;12.844;2023-07-30T03:38:50;14.70;90.40
69382;DHT22;56560;50.692;12.844;2023-07-30T03:41:16;14.70;90.10
69382;DHT22;56560;50.692;12.844;2023-07-30T03:43:41;14.80;90.00
69382;DHT22;56560;50.692;12.844;2023-07-30T03:46:07;15.00;89.10
69382;DHT22;56560;50.692;12.844;2023-07-30T03:48:33;15.00;88.50
69382;DHT22;56560;50.692;12.844;2023-07-30T03:50:58;15.10;88.50
69382;DHT22;56560;50.692;12.844;2023-07-30T03:53:24;15.20;88.50
69382;DHT22;56560;50.692;12.844;2023-07-30T03:55:49;15.40;88.10
69382;DHT22;56560;50.692;12.844;2023-07-30T03:58:15;15.50;88.20
69382;DHT22;56560;50.692;12.844;2023-07-30T04:00:41;15.50;87.80
69382;DHT22;56560;50.692;12.844;2023-07-30T04:03:06;15.60;88.00
69382;DHT22;56560;50.692;12.844;2023-07-30T04:05:32;15.60;88.30
69382;DHT22;56560;50.692;12.844;2023-07-30T04:07:58;15.60;88.30
69382;DHT22;56560;50.692;12.844;2023-07-30T04:10:23;15.50;89.30
69382;DHT22;56560;50.692;12.844;2023-07-30T04:12:49;15.50;89.90
69382;DHT22;56560;50.692;12.844;2023-07-30T04:15:15;15.50;90.70
69382;DHT22;56560;50.692;12.844;2023-07-30T04:17:41;15.60;90.60
69382;DHT22;56560;50.692;12.844;2023-07-30T04:20:08;15.60;90.70
69382;DHT22;56560;50.692;12.844;2023-07-30T04:22:37;15.70;90.70
69382;DHT22;56560;50.692;12.844;2023-07-30T04:25:03;15.80;90.10
69382;DHT22;56560;50.692;12.844;2023-07-30T04:27:29;16.00;89.70
69382;DHT22;56560;50.692;12.844;2023-07-30T04:29:55;16.00;89.50
69382;DHT22;56560;50.692;12.844;2023-07-30T04:32:21;16.10;89.50
69382;DHT22;56560;50.692;12.844;2023-07-30T04:34:47;16.20;89.50
69382;DHT22;56560;50.692;12.844;2023-07-30T04:37:13;16.30;89.40
69382;DHT22;56560;50.692;12.844;2023-07-30T04:39:38;16.40;89.30
69382;DHT22;56560;50.692;12.844;2023-07-30T04:42:04;16.50;89.30
69382;DHT22;56560;50.692;12.844;2023-07-30T04:44:30;16.60;88.80
69382;DHT22;56560;50.692;12.844;2023-07-30T04:46:56;16.70;88.20
69382;DHT22;56560;50.692;12.844;2023-07-30T04:49:21;16.90;87.80
69382;DHT22;56560;50.692;12.844;2023-07-30T04:51:47;17.00;87.10
69382;DHT22;56560;50.692;12.844;2023-07-30T04:54:13;17.10;86.80
69382;DHT22;56560;50.692;12.844;2023-07-30T04:56:38;17.20;86.60
69382;DHT22;56560;50.692;12.844;2023-07-30T04:59:04;17.30;86.50
69382;DHT22;56560;50.692;12.844;2023-07-30T05:01:30;17.40;85.90
69382;DHT22;56560;50.692;12.844;2023-07-30T05:03:56;17.50;86.10
69382;DHT22;56560;50.692;12.844;2023-07-30T05:06:22;17.60;85.90
69382;DHT22;56560;50.692;12.844;2023-07-30T05:08:48;17.70;85.40
69382;DHT22;56560;50.692;12.844;2023-07-30T05:11:14;17.90;85.10
69382;DHT22;56560;50.692;12.844;2023-07-30T05:13:40;18.10;84.40
69382;DHT22;56560;50.692;12.844;2023-07-30T05:16:05;18.30;83.80
69382;DHT22;56560;50.692;12.844;2023-07-30T05:18:31;18.50;83.30
69382;DHT22;56560;50.692;12.844;2023-07-30T05:20:57;18.60;82.30
69382;DHT22;56560;50.692;12.844;2023-07-30T05:23:22;18.50;82.70
69382;DHT22;56560;50.692;12.844;2023-07-30T05:25:48;18.40;83.40
69382;DHT22;56560;50.692;12.844;2023-07-30T05:28:13;18.40;84.00
69382;DHT22;56560;50.692;12.844;2023-07-30T05:30:39;18.40;83.90
69382;DHT22;56560;50.692;12.844;2023-07-30T05:33:05;18.50;83.80
69382;DHT22;56560;50.692;12.844;2023-07-30T05:35:30;18.50;83.90
69382;DHT22;56560;50.692;12.844;2023-07-30T05:37:56;18.50;84.10
69382;DHT22;56560;50.692;12.844;2023-07-30T05:40:22;18.60;84.30
69382;DHT22;56560;50.692;12.844;2023-07-30T05:42:48;18.60;84.10
69382;DHT22;56560;50.692;12.844;2023-07-30T05:45:13;18.60;84.00
69382;DHT22;56560;50.692;12.844;2023-07-30T05:47:39;18.60;84.30
69382;DHT22;56560;50.692;12.844;2023-07-30T05:50:06;18.60;84.30
69382;DHT22;56560;50.692;12.844;2023-07-30T05:52:32;18.60;84.30
69382;DHT22;56560;50.692;12.844;2023-07-30T05:54:58;18.70;84.40
69382;DHT22;56560;50.692;12.844;2023-07-30T05:57:23;18.70;84.30
69382;DHT22;56560;50.692;12.844;2023-07-30T05:59:49;18.80;83.60
69382;DHT22;56560;50.692;12.844;2023-07-30T06:02:15;18.90;83.10
69382;DHT22;56560;50.692;12.844;2023-07-30T06:04:40;18.90;83.10
69382;DHT22;56560;50.692;12.844;2023-07-30T06:07:06;18.90;83.20
69382;DHT22;56560;50.692;12.844;2023-07-30T06:09:32;19.10;83.60
69382;DHT22;56560;50.692;12.844;2023-07-30T06:11:58;19.20;82.60
69382;DHT22;56560;50.692;12.844;2023-07-30T06:14:24;19.40;82.00
69382;DHT22;56560;50.692;12.844;2023-07-30T06:16:51;19.50;82.00
69382;DHT22;56560;50.692;12.844;2023-07-30T06:19:17;19.40;82.10
69382;DHT22;56560;50.692;12.844;2023-07-30T06:21:43;19.40;82.70
69382;DHT22;56560;50.692;12.844;2023-07-30T06:24:09;19.30;81.10
69382;DHT22;56560;50.692;12.844;2023-07-30T06:26:35;19.30;81.50
69382;DHT22;56560;50.692;12.844;2023-07-30T06:29:01;19.40;81.50
69382;DHT22;56560;50.692;12.844;2023-07-30T06:31:26;19.50;80.20
69382;DHT22;56560;50.692;12.844;2023-07-30T06:33:52;19.80;79.20
69382;DHT22;56560;50.692;12.844;2023-07-30T06:36:18;20.20;77.40
69382;DHT22;56560;50.692;12.844;2023-07-30T06:38:43;20.20;77.40
69382;DHT22;56560;50.692;12.844;2023-07-30T06:41:09;20.30;76.50
69382;DHT22;56560;50.692;12.844;2023-07-30T06:43:35;20.40;76.30
69382;DHT22;56560;50.692;12.844;2023-07-30T06:46:01;20.60;76.20
69382;DHT22;56560;50.692;12.844;2023-07-30T06:48:26;20.70;75.80
69382;DHT22;56560;50.692;12.844;2023-07-30T06:50:52;20.70;74.20
69382;DHT22;56560;50.692;12.844;2023-07-30T06:53:18;20.90;74.90
69382;DHT22;56560;50.692;12.844;2023-07-30T06:55:44;21.10;73.50
69382;DHT22;56560;50.692;12.844;2023-07-30T06:58:10;21.20;73.40
69382;DHT22;56560;50.692;12.844;2023-07-30T07:00:36;21.20;73.10
69382;DHT22;56560;50.692;12.844;2023-07-30T07:03:01;21.20;73.90
69382;DHT22;56560;50.692;12.844;2023-07-30T07:05:27;21.40;72.40
69382;DHT22;56560;50.692;12.844;2023-07-30T07:07:53;21.50;73.40
69382;DHT22;56560;50.692;12.844;2023-07-30T07:10:18;21.90;71.50
69382;DHT22;56560;50.692;12.844;2023-07-30T07:12:44;22.10;71.00
69382;DHT22;56560;50.692;12.844;2023-07-30T07:15:09;22.30;69.00
69382;DHT22;56560;50.692;12.844;2023-07-30T07:17:35;22.40;67.60
69382;DHT22;56560;50.692;12.844;2023-07-30T07:20:01;22.50;68.80
69382;DHT22;56560;50.692;12.844;2023-07-30T07:22:29;22.60;67.80
69382;DHT22;56560;50.692;12.844;2023-07-30T07:24:54;22.50;68.90
69382;DHT22;56560;50.692;12.844;2023-07-30T07:27:20;22.10;70.30
69382;DHT22;56560;50.692;12.844;2023-07-30T07:29:46;21.90;71.40
69382;DHT22;56560;50.692;12.844;2023-07-30T07:32:12;21.70;71.70
69382;DHT22;56560;50.692;12.844;2023-07-30T07:34:38;21.50;71.50
69382;DHT22;56560;50.692;12.844;2023-07-30T07:37:03;21.50;72.00
69382;DHT22;56560;50.692;12.844;2023-07-30T07:39:29;21.50;71.80
69382;DHT22;56560;50.692;12.844;2023-07-30T07:41:55;21.60;71.20
69382;DHT22;56560;50.692;12.844;2023-07-30T07:44:21;21.80;70.50
69382;DHT22;56560;50.692;12.844;2023-07-30T07:46:48;22.00;70.10
69382;DHT22;56560;50.692;12.844;2023-07-30T07:49:13;22.10;70.00
69382;DHT22;56560;50.692;12.844;2023-07-30T07:51:39;22.30;69.30
69382;DHT22;56560;50.692;12.844;2023-07-30T07:54:05;22.40;69.00
69382;DHT22;56560;50.692;12.844;2023-07-30T07:56:34;22.40;66.80
69382;DHT22;56560;50.692;12.844;2023-07-30T07:58:59;22.50;67.00
69382;DHT22;56560;50.692;12.844;2023-07-30T08:01:28;22.60;67.00
69382;DHT22;56560;50.692;12.844;2023-07-30T08:03:59;22.80;67.00
69382;DHT22;56560;50.692;12.844;2023-07-30T08:06:33;22.90;66.00
69382;DHT22;56560;50.692;12.844;2023-07-30T08:08:59;23.00;65.60
69382;DHT22;56560;50.692;12.844;2023-07-30T08:11:25;23.40;65.10
69382;DHT22;56560;50.692;12.844;2023-07-30T08:13:54;23.60;63.10
69382;DHT22;56560;50.692;12.844;2023-07-30T08:16:19;23.50;64.20
69382;DHT22;56560;50.692;12.844;2023-07-30T08:18:45;23.20;64.40
69382;DHT22;56560;50.692;12.844;2023-07-30T08:21:11;23.10;64.20
69382;DHT22;56560;50.692;12.844;2023-07-30T08:23:37;23.50;63.50
69382;DHT22;56560;50.692;12.844;2023-07-30T08:26:02;24.10;63.30
69382;DHT22;56560;50.692;12.844;2023-07-30T08:28:31;24.80;61.10
69382;DHT22;56560;50.692;12.844;2023-07-30T08:31:01;24.80;60.10
69382;DHT22;56560;50.692;12.844;2023-07-30T08:33:29;24.60;59.30
69382;DHT22;56560;50.692;12.844;2023-07-30T08:35:55;24.40;59.80
69382;DHT22;56560;50.692;12.844;2023-07-30T08:38:22;24.30;60.90
69382;DHT22;56560;50.692;12.844;2023-07-30T08:40:47;24.60;60.90
69382;DHT22;56560;50.692;12.844;2023-07-30T08:43:17;24.90;59.00
69382;DHT22;56560;50.692;12.844;2023-07-30T08:45:46;25.30;56.40
69382;DHT22;56560;50.692;12.844;2023-07-30T08:48:11;25.50;58.20
69382;DHT22;56560;50.692;12.844;2023-07-30T08:50:37;25.40;57.10
69382;DHT22;56560;50.692;12.844;2023-07-30T08:53:04;25.30;57.70
69382;DHT22;56560;50.692;12.844;2023-07-30T08:55:37;24.80;58.40
69382;DHT22;56560;50.692;12.844;2023-07-30T08:58:05;25.00;59.10
69382;DHT22;56560;50.692;12.844;2023-07-30T09:00:34;25.30;59.20
69382;DHT22;56560;50.692;12.844;2023-07-30T09:03:03;26.00;56.60
69382;DHT22;56560;50.692;12.844;2023-07-30T09:05:30;26.20;55.90
69382;DHT22;56560;50.692;12.844;2023-07-30T09:07:58;26.30;55.70
69382;DHT22;56560;50.692;12.844;2023-07-30T09:10:25;26.60;56.60
69382;DHT22;56560;50.692;12.844;2023-07-30T09:12:56;26.70;54.70
69382;DHT22;56560;50.692;12.844;2023-07-30T09:15:33;27.00;53.20
69382;DHT22;56560;50.692;12.844;2023-07-30T09:18:00;26.60;52.40
69382;DHT22;56560;50.692;12.844;2023-07-30T09:20:30;26.90;51.90
69382;DHT22;56560;50.692;12.844;2023-07-30T09:23:01;27.00;51.80
69382;DHT22;56560;50.692;12.844;2023-07-30T09:25:27;26.50;53.90
69382;DHT22;56560;50.692;12.844;2023-07-30T09:27:53;26.30;52.60
69382;DHT22;56560;50.692;12.844;2023-07-30T09:30:23;26.20;52.50
69382;DHT22;56560;50.692;12.844;2023-07-30T09:32:51;26.40;52.10
69382;DHT22;56560;50.692;12.844;2023-07-30T09:35:19;26.60;52.70
69382;DHT22;56560;50.692;12.844;2023-07-30T09:37:45;26.80;51.60
69382;DHT22;56560;50.692;12.844;2023-07-30T09:40:13;26.80;53.30
69382;DHT22;56560;50.692;12.844;2023-07-30T09:42:42;27.10;53.20
69382;DHT22;56560;50.692;12.844;2023-07-30T09:45:16;27.30;50.80
69382;DHT22;56560;50.692;12.844;2023-07-30T09:47:47;27.10;50.60
69382;DHT22;56560;50.692;12.844;2023-07-30T09:50:14;27.40;50.30
69382;DHT22;56560;50.692;12.844;2023-07-30T09:52:42;27.50;48.80
69382;DHT22;56560;50.692;12.844;2023-07-30T09:55:08;27.30;50.00
69382;DHT22;56560;50.692;12.844;2023-07-30T09:57:34;26.90;50.60
69382;DHT22;56560;50.692;12.844;2023-07-30T10:00:01;26.50;49.70
69382;DHT22;56560;50.692;12.844;2023-07-30T10:02:28;26.20;51.40
69382;DHT22;56560;50.692;12.844;2023-07-30T10:04:57;26.50;50.50
69382;DHT22;56560;50.692;12.844;2023-07-30T10:07:25;26.60;50.40
69382;DHT22;56560;50.692;12.844;2023-07-30T10:09:53;26.00;51.40
69382;DHT22;56560;50.692;12.844;2023-07-30T10:12:25;25.90;53.50
69382;DHT22;56560;50.692;12.844;2023-07-30T10:14:52;26.20;52.20
69382;DHT22;56560;50.692;12.844;2023-07-30T10:17:18;26.30;52.00
69382;DHT22;56560;50.692;12.844;2023-07-30T10:19:48;26.10;51.70
69382;DHT22;56560;50.692;12.844;2023-07-30T10:24:58;26.60;48.80
69382;DHT22;56560;50.692;12.844;2023-07-30T10:27:26;26.90;48.40
69382;DHT22;56560;50.692;12.844;2023-07-30T10:30:14;26.90;47.00
69382;DHT22;56560;50.692;12.844;2023-07-30T10:35:41;27.30;46.40
69382;DHT22;56560;50.692;12.844;2023-07-30T10:38:16;27.40;45.10
69382;DHT22;56560;50.692;12.844;2023-07-30T10:40:59;27.40;45.30
69382;DHT22;56560;50.692;12.844;2023-07-30T10:43:31;27.50;44.40
69382;DHT22;56560;50.692;12.844;2023-07-30T10:45:58;27.70;43.50
69382;DHT22;56560;50.692;12.844;2023-07-30T10:48:35;27.40;45.00
69382;DHT22;56560;50.692;12.844;2023-07-30T10:51:08;27.40;45.70
69382;DHT22;56560;50.692;12.844;2023-07-30T10:53:34;27.40;45.40
69382;DHT22;56560;50.692;12.844;2023-07-30T10:56:06;27.60;46.20
69382;DHT22;56560;50.692;12.844;2023-07-30T10:58:33;27.90;44.60
69382;DHT22;56560;50.692;12.844;2023-07-30T11:01:04;27.90;44.50
69382;DHT22;56560;50.692;12.844;2023-07-30T11:03:31;27.80;45.90
69382;DHT22;56560;50.692;12.844;2023-07-30T11:06:00;27.80;45.70
69382;DHT22;56560;50.692;12.844;2023-07-30T11:08:39;27.40;45.30
69382;DHT22;56560;50.692;12.844;2023-07-30T11:11:07;26.60;47.30
69382;DHT22;56560;50.692;12.844;2023-07-30T11:13:43;26.10;48.40
69382;DHT22;56560;50.692;12.844;2023-07-30T11:16:11;26.00;48.50
69382;DHT22;56560;50.692;12.844;2023-07-30T11:18:38;25.90;48.90
69382;DHT22;56560;50.692;12.844;2023-07-30T11:21:04;26.00;49.20
69382;DHT22;56560;50.692;12.844;2023-07-30T11:23:30;26.10;49.00
69382;DHT22;56560;50.692;12.844;2023-07-30T11:25:56;26.00;49.50
69382;DHT22;56560;50.692;12.844;2023-07-30T11:28:38;25.70;49.00
69382;DHT22;56560;50.692;12.844;2023-07-30T11:31:12;25.60;51.10
69382;DHT22;56560;50.692;12.844;2023-07-30T11:33:40;25.60;49.80
69382;DHT22;56560;50.692;12.844;2023-07-30T11:36:09;25.50;49.90
69382;DHT22;56560;50.692;12.844;2023-07-30T11:38:36;25.50;50.90
69382;DHT22;56560;50.692;12.844;2023-07-30T11:41:03;25.40;51.20
69382;DHT22;56560;50.692;12.844;2023-07-30T11:43:31;25.60;52.50
69382;DHT22;56560;50.692;12.844;2023-07-30T11:46:16;25.90;50.50
69382;DHT22;56560;50.692;12.844;2023-07-30T11:48:44;26.10;52.50
69382;DHT22;56560;50.692;12.844;2023-07-30T11:54:04;25.80;50.60
69382;DHT22;56560;50.692;12.844;2023-07-30T11:56:37;25.70;52.40
69382;DHT22;56560;50.692;12.844;2023-07-30T11:59:07;25.70;51.40
69382;DHT22;56560;50.692;12.844;2023-07-30T12:01:34;26.00;51.10
69382;DHT22;56560;50.692;12.844;2023-07-30T12:04:02;26.20;49.30
69382;DHT22;56560;50.692;12.844;2023-07-30T12:06:44;26.10;49.20
69382;DHT22;56560;50.692;12.844;2023-07-30T12:09:15;26.50;49.00
69382;DHT22;56560;50.692;12.844;2023-07-30T12:11:54;27.40;47.30
69382;DHT22;56560;50.692;12.844;2023-07-30T12:14:53;29.10;44.70
69382;DHT22;56560;50.692;12.844;2023-07-30T12:17:12;29.60;43.50
69382;DHT22;56560;50.692;12.844;2023-07-30T12:19:38;29.90;42.80
69382;DHT22;56560;50.692;12.844;2023-07-30T12:22:13;30.60;41.20
69382;DHT22;56560;50.692;12.844;2023-07-30T12:24:38;31.10;39.80
69382;DHT22;56560;50.692;12.844;2023-07-30T12:27:04;31.60;39.00
69382;DHT22;56560;50.692;12.844;2023-07-30T12:29:30;32.40;38.20
69382;DHT22;56560;50.692;12.844;2023-07-30T12:31:55;32.50;36.40
69382;DHT22;56560;50.692;12.844;2023-07-30T12:34:23;32.60;37.60
69382;DHT22;56560;50.692;12.844;2023-07-30T12:36:48;32.40;37.60
69382;DHT22;56560;50.692;12.844;2023-07-30T12:39:14;31.70;39.10
69382;DHT22;56560;50.692;12.844;2023-07-30T12:41:40;31.10;40.60
69382;DHT22;56560;50.692;12.844;2023-07-30T12:44:05;29.90;41.10
69382;DHT22;56560;50.692;12.844;2023-07-30T12:46:31;29.20;42.90
69382;DHT22;56560;50.692;12.844;2023-07-30T12:48:58;28.60;43.40
69382;DHT22;56560;50.692;12.844;2023-07-30T12:51:30;27.80;44.20
69382;DHT22;56560;50.692;12.844;2023-07-30T12:53:55;27.50;45.30
69382;DHT22;56560;50.692;12.844;2023-07-30T12:56:21;27.10;45.90
69382;DHT22;56560;50.692;12.844;2023-07-30T12:58:46;27.10;45.70
69382;DHT22;56560;50.692;12.844;2023-07-30T13:01:12;26.90;46.30
69382;DHT22;56560;50.692;12.844;2023-07-30T13:03:38;27.40;46.60
69382;DHT22;56560;50.692;12.844;2023-07-30T13:06:04;28.70;44.70
69382;DHT22;56560;50.692;12.844;2023-07-30T13:08:30;30.40;41.40
69382;DHT22;56560;50.692;12.844;2023-07-30T13:10:55;31.50;39.00
69382;DHT22;56560;50.692;12.844;2023-07-30T13:13:21;32.70;36.70
69382;DHT22;56560;50.692;12.844;2023-07-30T13:15:47;33.90;35.70
69382;DHT22;56560;50.692;12.844;2023-07-30T13:18:13;34.40;34.90
69382;DHT22;56560;50.692;12.844;2023-07-30T13:20:38;34.80;34.60
69382;DHT22;56560;50.692;12.844;2023-07-30T13:23:04;34.30;35.20
69382;DHT22;56560;50.692;12.844;2023-07-30T13:25:29;32.80;36.30
69382;DHT22;56560;50.692;12.844;2023-07-30T13:27:55;31.40;38.90
69382;DHT22;56560;50.692;12.844;2023-07-30T13:30:21;30.50;39.20
69382;DHT22;56560;50.692;12.844;2023-07-30T13:32:46;29.50;40.90
69382;DHT22;56560;50.692;12.844;2023-07-30T13:35:12;28.70;42.10
69382;DHT22;56560;50.692;12.844;2023-07-30T13:37:38;27.90;44.40
69382;DHT22;56560;50.692;12.844;2023-07-30T13:40:03;27.10;45.10
69382;DHT22;56560;50.692;12.844;2023-07-30T13:42:29;26.40;47.30
69382;DHT22;56560;50.692;12.844;2023-07-30T13:44:55;25.40;49.40
69382;DHT22;56560;50.692;12.844;2023-07-30T13:47:20;24.70;51.50
69382;DHT22;56560;50.692;12.844;2023-07-30T13:49:46;24.00;55.50
69382;DHT22;56560;50.692;12.844;2023-07-30T13:52:13;22.70;61.20
69382;DHT22;56560;50.692;12.844;2023-07-30T13:54:39;21.00;67.60
69382;DHT22;56560;50.692;12.844;2023-07-30T13:57:04;19.70;72.30
69382;DHT22;56560;50.692;12.844;2023-07-30T13:59:31;19.10;76.10
69382;DHT22;56560;50.692;12.844;2023-07-30T14:01:56;19.20;78.30
69382;DHT22;56560;50.692;12.844;2023-07-30T14:04:22;19.90;76.80
69382;DHT22;56560;50.692;12.844;2023-07-30T14:06:48;20.70;74.40
69382;DHT22;56560;50.692;12.844;2023-07-30T14:09:13;21.80;76.10
69382;DHT22;56560;50.692;12.844;2023-07-30T14:11:39;23.80;66.70
69382;DHT22;56560;50.692;12.844;2023-07-30T14:14:08;25.60;59.50
69382;DHT22;56560;50.692;12.844;2023-07-30T14:16:33;26.60;57.00
69382;DHT22;56560;50.692;12.844;2023-07-30T14:18:59;26.80;55.90
69382;DHT22;56560;50.692;12.844;2023-07-30T14:21:25;26.30;55.70
69382;DHT22;56560;50.692;12.844;2023-07-30T14:23:50;25.70;56.80
69382;DHT22;56560;50.692;12.844;2023-07-30T14:26:16;24.70;58.90
69382;DHT22;56560;50.692;12.844;2023-07-30T14:28:42;23.90;61.50
69382;DHT22;56560;50.692;12.844;2023-07-30T14:31:07;23.40;63.30
69382;DHT22;56560;50.692;12.844;2023-07-30T14:33:33;23.20;64.10
69382;DHT22;56560;50.692;12.844;2023-07-30T14:35:58;23.00;63.80
69382;DHT22;56560;50.692;12.844;2023-07-30T14:38:24;23.00;66.10
69382;DHT22;56560;50.692;12.844;2023-07-30T14:40:49;22.60;66.50
69382;DHT22;56560;50.692;12.844;2023-07-30T14:43:15;22.20;67.20
69382;DHT22;56560;50.692;12.844;2023-07-30T14:45:41;21.70;69.90
69382;DHT22;56560;50.692;12.844;2023-07-30T14:48:06;21.30;71.10
69382;DHT22;56560;50.692;12.844;2023-07-30T14:50:32;21.10;70.50
69382;DHT22;56560;50.692;12.844;2023-07-30T14:52:57;21.20;68.60
69382;DHT22;56560;50.692;12.844;2023-07-30T14:55:23;20.80;71.00
69382;DHT22;56560;50.692;12.844;2023-07-30T14:57:49;20.60;71.20
69382;DHT22;56560;50.692;12.844;2023-07-30T15:00:14;20.50;72.20
69382;DHT22;56560;50.692;12.844;2023-07-30T15:02:42;20.40;72.30
69382;DHT22;56560;50.692;12.844;2023-07-30T15:05:08;20.40;71.30
69382;DHT22;56560;50.692;12.844;2023-07-30T15:07:33;20.30;71.80
69382;DHT22;56560;50.692;12.844;2023-07-30T15:09:59;20.30;72.00
69382;DHT22;56560;50.692;12.844;2023-07-30T15:12:25;20.30;71.30
69382;DHT22;56560;50.692;12.844;2023-07-30T15:14:51;20.40;71.80
69382;DHT22;56560;50.692;12.844;2023-07-30T15:17:16;20.80;70.20
69382;DHT22;56560;50.692;12.844;2023-07-30T15:19:42;21.60;68.70
69382;DHT22;56560;50.692;12.844;2023-07-30T15:22:12;22.70;65.30